Manitowoc, Wisconsin
Current Conditions -  °F | °C
As of 6:29 PM on Saturday 20 Dec 2014 (Local Time) from KMTW Reporting Station
Overcast Overcast  
Wind Chill: 28°   Ceiling: 2400
Heat Index: 28°   Visibility: 9mi
Dew Point: 25°   Wind: 3mph
Humidity: 86%   Direction: 260°W
Pressure: 30.24"   Gusts: NA
Location:  44.11°N, 87.66°W
Report Text: KMTW 210029Z AUTO 26003KT 9SM BKN024 BKN042 OVC049 M02/M04 A3024 RMK AO2 FZRANO
Loading
Personal Weather Stations






























Interactive Weather Map New forecast layout! Learn more

10-Day Weather Forecast

Advertisements
Track Severe Weather on mobile